Maersk Missouri — WAHV — position and weather

sailwx.info

Track history (hours):
 
Tides and Currents Weather Stations Pressure Air Temp Water Temp Dewpoint Dewpoint Depression Visibility Wind Speed Wind Dir Waves Ship Positions

Maersk Missouri

Owner: MAERSK LINE, LIMITED, Norfolk, VA. More information available from US FCC via Universal Licensing System and Coast Guard Vessel Documentation Center.

Last reported at 2015-Feb-28 00:00 UTC. Time now 2015-Feb-28 02:00 UTC.
Position N 47°12' W 012°42'.

Type: Cargo ship. MMSI: 369708000.

Wind from 290 at 25 knots

Waves 2.0 meters (7 feet), 6 second period

Barometer 1022.0 mb
Air temperature 12.8 ° C
Visibility: greater than 5.4 NM
Dewpoint 9.3 ° C
Water temperature 11.4 ° C

Date/timePositionNaut miles runAvg speedWind from/ knotsBaromVisibWave heightAir tempDewpointWater temp
2015-Feb-28 00:00N 47°12' W 012°42'11619.3 290 / 251022.0 5.4 2.012.8 9.311.4
2015-Feb-27 18:00N 48°00' W 010°06'22118.4 250 / 301019.2 2.2 1.512.811.311.3
2015-Feb-27 06:00N 49°30' W 005°00'7219.2 320 / 171027.410.8 1.0 8.8 2.110.3
2015-Feb-27 02:15N 49°57' W 003°17'9419.6
2015-Feb-26 21:27N 50°23' W 000°56'1921.4
2015-Feb-26 20:33N 50°27' W 000°26'2420.8
2015-Feb-26 19:23N 50°31' E 000°11'1620.2
2015-Feb-26 18:34N 50°35' E 000°36'1919.4
2015-Feb-26 17:34N 50°47' E 001°01'1818.2
2015-Feb-26 16:34N 50°59' E 001°23'1817.8
2015-Feb-26 15:34N 51°11' E 001°43'2019.8
2015-Feb-26 14:34N 51°28' E 001°60'2120.8
2015-Feb-26 13:32N 51°44' E 002°23'9519.2
2015-Feb-26 08:33N 52°59' E 003°59'1918.8
2015-Feb-26 07:32N 53°11' E 004°24'2119.6
2015-Feb-26 06:29N 53°30' E 004°39'918.6
2015-Feb-26 06:00N 53°30' E 004°54'1125.9 180 / 261017.9 2.2 1.0 5.0 5.0 5.9
2015-Feb-26 05:33N 53°37' E 005°09'2120.8
2015-Feb-26 04:34N 53°43' E 005°42'2020.1
2015-Feb-26 03:34N 53°49' E 006°15'3819.1
2015-Feb-26 01:34N 53°59' E 007°18'1616.2
2015-Feb-26 00:34N 53°54' E 007°44'1413.7
2015-Feb-25 23:33N 53°50' E 008°06'1414.0
2015-Feb-25 22:34N 53°40' E 008°23'7 7.3
2015-Feb-25 21:33N 53°35' E 008°32'0 0.0
2015-Feb-25 20:31N 53°35' E 008°32'0 0.0
2015-Feb-25 19:31N 53°35' E 008°32'0 0.0
2015-Feb-25 18:32N 53°35' E 008°32'0 0.0
2015-Feb-25 17:33N 53°35' E 008°32'0 0.0
2015-Feb-25 16:33N 53°35' E 008°32'0 0.0
2015-Feb-25 15:31N 53°35' E 008°32'0 0.0
2015-Feb-25 14:29N 53°35' E 008°32'0 0.0
2015-Feb-25 13:32N 53°35' E 008°32'0 0.0
2015-Feb-25 12:33N 53°35' E 008°32'0 0.0
2015-Feb-25 11:33N 53°35' E 008°32'0 0.0
2015-Feb-25 10:31N 53°35' E 008°32'0 0.0
2015-Feb-25 09:32N 53°35' E 008°32'0 0.0
2015-Feb-25 08:32N 53°35' E 008°32'0 0.0
2015-Feb-25 07:33N 53°35' E 008°32'0 0.0
2015-Feb-25 06:31N 53°35' E 008°32'0 0.0
2015-Feb-25 05:28N 53°35' E 008°32'0 0.0
2015-Feb-25 04:32N 53°35' E 008°32'0 0.0
2015-Feb-25 03:33N 53°35' E 008°32'0 0.0
2015-Feb-25 02:33N 53°35' E 008°32'0 0.0
2015-Feb-25 01:31N 53°35' E 008°32'0 0.0
2015-Feb-25 00:29N 53°35' E 008°32'0 0.0
2015-Feb-24 23:31N 53°35' E 008°32'0 0.0
2015-Feb-24 22:32N 53°35' E 008°32'0 0.0
2015-Feb-24 21:33N 53°35' E 008°32'0 0.0
2015-Feb-24 20:34N 53°35' E 008°32'1 1.2
2015-Feb-24 19:33N 53°36' E 008°31'1313.2
2015-Feb-24 18:34N 53°44' E 008°14'1615.5
2015-Feb-24 17:33N 53°52' E 007°51'1010.2
2015-Feb-24 16:33N 53°54' E 007°34'1714.1
2015-Feb-24 15:23N 53°51' E 007°06'1414.1
2015-Feb-24 14:24N 53°49' E 006°43'1914.8
2015-Feb-24 13:08N 53°44' E 006°12'915.2
2015-Feb-24 12:34N 53°41' E 005°59'1413.9
2015-Feb-24 11:33N 53°37' E 005°36'1313.5
2015-Feb-24 10:33N 53°33' E 005°15'1414.0
2015-Feb-24 09:33N 53°26' E 004°53'1616.5
2015-Feb-24 08:33N 53°15' E 004°34'1716.8
2015-Feb-24 07:33N 52°60' E 004°22'1816.9
2015-Feb-24 06:31N 52°44' E 004°08'2 4.6
2015-Feb-24 06:00N 52°42' E 004°06'1530.7 250 / 36996.9 5.4 1.5 7.0 4.7 6.0
2015-Feb-24 05:31N 52°29' E 003°55'1616.2
2015-Feb-24 04:33N 52°14' E 003°53'1211.8
2015-Feb-24 03:34N 52°02' E 003°56'6 6.1
2015-Feb-24 02:33N 51°57' E 004°03'0 0.0
2015-Feb-24 01:33N 51°57' E 004°03'0 0.0
2015-Feb-24 00:31N 51°57' E 004°03'0 0.0
2015-Feb-23 23:31N 51°57' E 004°03'0 0.0
2015-Feb-23 22:32N 51°57' E 004°03'0 0.0
2015-Feb-23 21:32N 51°58' E 004°03'0 0.0
2015-Feb-23 20:32N 51°57' E 004°03'0 0.0
2015-Feb-23 19:33N 51°57' E 004°03'0 0.0
2015-Feb-23 18:33N 51°57' E 004°03'0 0.0
2015-Feb-23 17:31N 51°57' E 004°03'0 0.0
2015-Feb-23 16:32N 51°57' E 004°03'0 0.0
2015-Feb-23 15:32N 51°57' E 004°03'0 0.0
2015-Feb-23 14:33N 51°57' E 004°03'0 0.0
2015-Feb-23 13:31N 51°58' E 004°03'0 0.0
2015-Feb-23 12:31N 51°57' E 004°03'0 0.0
2015-Feb-23 11:32N 51°57' E 004°03'0 0.0
2015-Feb-23 10:33N 51°57' E 004°03'0 0.0
2015-Feb-23 09:33N 51°57' E 004°03'0 0.0
2015-Feb-23 08:31N 51°57' E 004°03'0 0.0
2015-Feb-23 07:31N 51°57' E 004°03'0 0.0
2015-Feb-23 06:32N 51°57' E 004°03'1 1.1
2015-Feb-23 05:33N 51°58' E 004°05'6 6.1
2015-Feb-23 04:33N 52°01' E 003°56'9 8.7
2015-Feb-23 03:34N 51°59' E 003°42'1010.4
2015-Feb-23 02:34N 51°56' E 003°26'10 9.5
2015-Feb-23 01:33N 51°52' E 003°12'9 8.8
2015-Feb-23 00:33N 51°48' E 002°60'0 0.1
2015-Feb-22 23:33N 51°48' E 002°60'7 6.6
2015-Feb-22 22:33N 51°49' E 003°10'6 5.5
2015-Feb-22 21:32N 51°49' E 003°19'6 6.0
2015-Feb-22 20:33N 51°44' E 003°13'5 5.0
2015-Feb-22 19:33N 51°40' E 003°12'1615.9
2015-Feb-22 18:33N 51°25' E 003°03'1918.8
2015-Feb-22 17:33N 51°26' E 003°33'1212.2
2015-Feb-22 16:34N 51°21' E 003°51'8 7.8
2015-Feb-22 15:33N 51°22' E 004°03'9 8.8
2015-Feb-22 14:34N 51°21' E 004°17'1 0.7
2015-Feb-22 13:33N 51°20' E 004°18'1 1.0
2015-Feb-22 12:33N 51°19' E 004°19'1 0.9
2015-Feb-22 11:28N 51°20' E 004°20'0 0.0
2015-Feb-22 10:29N 51°20' E 004°20'0 0.0
2015-Feb-22 09:32N 51°20' E 004°20'0 0.0
2015-Feb-22 08:33N 51°20' E 004°20'0 0.0
2015-Feb-22 07:33N 51°20' E 004°20'0 0.0
2015-Feb-22 06:31N 51°20' E 004°20'0 0.0
2015-Feb-22 05:31N 51°20' E 004°20'0 0.0
2015-Feb-22 04:32N 51°20' E 004°20'0 0.0
2015-Feb-22 03:32N 51°20' E 004°20'0 0.0
2015-Feb-22 02:30N 51°20' E 004°20'0 0.0
2015-Feb-22 01:33N 51°20' E 004°20'0 0.0
2015-Feb-22 00:33N 51°20' E 004°20'0 0.0
2015-Feb-21 23:31N 51°20' E 004°20'0 0.0
2015-Feb-21 22:28N 51°20' E 004°20'0 0.0
2015-Feb-21 21:32N 51°20' E 004°20'0 0.0
2015-Feb-21 20:32N 51°20' E 004°20'0 0.0
2015-Feb-21 19:30N 51°20' E 004°20'0 0.0
2015-Feb-21 18:33N 51°20' E 004°20'0 0.0
2015-Feb-21 17:31N 51°20' E 004°20'0 0.0
2015-Feb-21 16:31N 51°20' E 004°20'0 0.0
2015-Feb-21 15:32N 51°20' E 004°20'0 0.0
2015-Feb-21 14:32N 51°20' E 004°20'0 0.0
2015-Feb-21 13:33N 51°20' E 004°20'0 0.0
2015-Feb-21 12:33N 51°20' E 004°20'0 0.0
2015-Feb-21 11:33N 51°20' E 004°20'1 1.1
2015-Feb-21 10:33N 51°20' E 004°19'2 1.6
2015-Feb-21 09:34N 51°21' E 004°17'5 5.3
2015-Feb-21 08:33N 51°23' E 004°09'8 8.5
2015-Feb-21 07:33N 51°22' E 003°56'1010.0
2015-Feb-21 06:33N 51°26' E 003°41'1110.9
2015-Feb-21 05:33N 51°24' E 003°23'1817.9
2015-Feb-21 04:33N 51°22' E 002°55'1212.1
2015-Feb-21 03:33N 51°22' E 002°36'1615.9
2015-Feb-21 02:33N 51°17' E 002°12'2120.6
2015-Feb-21 01:34N 51°05' E 001°45'2420.7
2015-Feb-21 00:24N 50°45' E 001°24'33420.3
2015-Feb-20 08:00N 48°42' W 006°36'66220.7 350 / 221012.910.8 2.0 9.5 7.410.5
2015-Feb-19 00:00N 42°12' W 019°18'36620.3 240 / 141038.6 5.4 1.013.812.313.4
2015-Feb-18 06:00N 39°36' W 026°36'3323.3 200 / 181038.410.8 1.016.014.315.5
2015-Feb-18 04:33N 39°31' W 027°19'2121.2
2015-Feb-18 03:33N 39°25' W 027°45'2121.2
2015-Feb-18 02:33N 39°20' W 028°12'2121.3
2015-Feb-18 01:33N 39°14' W 028°38'2121.4
2015-Feb-18 00:33N 39°09' W 029°05'1323.5
2015-Feb-18 00:00N 39°00' W 029°18'   210 / 221038.310.8 1.517.514.916.2
Track history (hours):
 
Tides and Currents Weather Stations Pressure Air Temp Water Temp Dewpoint Dewpoint Depression Visibility Wind Speed Wind Dir Waves Ship Positions

Maersk Missouri

Owner: MAERSK LINE, LIMITED, Norfolk, VA. More information available from US FCC via Universal Licensing System and Coast Guard Vessel Documentation Center.

Last reported at 2015-Feb-28 00:00 UTC. Time now 2015-Feb-28 02:00 UTC.
Position N 47°12' W 012°42'.

Type: Cargo ship. MMSI: 369708000.

Wind from 290 at 25 knots

Waves 2.0 meters (7 feet), 6 second period

Barometer 1022.0 mb
Air temperature 12.8 ° C
Visibility: greater than 5.4 NM
Dewpoint 9.3 ° C
Water temperature 11.4 ° C

Date/timePositionNaut miles runAvg speedWind from/ knotsBaromVisibWave heightAir tempDewpointWater temp
2015-Feb-28 00:00N 47°12' W 012°42'11619.3 290 / 251022.0 5.4 2.012.8 9.311.4
2015-Feb-27 18:00N 48°00' W 010°06'22118.4 250 / 301019.2 2.2 1.512.811.311.3
2015-Feb-27 06:00N 49°30' W 005°00'7219.2 320 / 171027.410.8 1.0 8.8 2.110.3
2015-Feb-27 02:15N 49°57' W 003°17'9419.6
2015-Feb-26 21:27N 50°23' W 000°56'1921.4
2015-Feb-26 20:33N 50°27' W 000°26'2420.8
2015-Feb-26 19:23N 50°31' E 000°11'1620.2
2015-Feb-26 18:34N 50°35' E 000°36'1919.4
2015-Feb-26 17:34N 50°47' E 001°01'1818.2
2015-Feb-26 16:34N 50°59' E 001°23'1817.8
2015-Feb-26 15:34N 51°11' E 001°43'2019.8
2015-Feb-26 14:34N 51°28' E 001°60'2120.8
2015-Feb-26 13:32N 51°44' E 002°23'9519.2
2015-Feb-26 08:33N 52°59' E 003°59'1918.8
2015-Feb-26 07:32N 53°11' E 004°24'2119.6
2015-Feb-26 06:29N 53°30' E 004°39'918.6
2015-Feb-26 06:00N 53°30' E 004°54'1125.9 180 / 261017.9 2.2 1.0 5.0 5.0 5.9
2015-Feb-26 05:33N 53°37' E 005°09'2120.8
2015-Feb-26 04:34N 53°43' E 005°42'2020.1
2015-Feb-26 03:34N 53°49' E 006°15'3819.1
2015-Feb-26 01:34N 53°59' E 007°18'1616.2
2015-Feb-26 00:34N 53°54' E 007°44'1413.7
2015-Feb-25 23:33N 53°50' E 008°06'1414.0
2015-Feb-25 22:34N 53°40' E 008°23'7 7.3
2015-Feb-25 21:33N 53°35' E 008°32'0 0.0
2015-Feb-25 20:31N 53°35' E 008°32'0 0.0
2015-Feb-25 19:31N 53°35' E 008°32'0 0.0
2015-Feb-25 18:32N 53°35' E 008°32'0 0.0
2015-Feb-25 17:33N 53°35' E 008°32'0 0.0
2015-Feb-25 16:33N 53°35' E 008°32'0 0.0
2015-Feb-25 15:31N 53°35' E 008°32'0 0.0
2015-Feb-25 14:29N 53°35' E 008°32'0 0.0
2015-Feb-25 13:32N 53°35' E 008°32'0 0.0
2015-Feb-25 12:33N 53°35' E 008°32'0 0.0
2015-Feb-25 11:33N 53°35' E 008°32'0 0.0
2015-Feb-25 10:31N 53°35' E 008°32'0 0.0
2015-Feb-25 09:32N 53°35' E 008°32'0 0.0
2015-Feb-25 08:32N 53°35' E 008°32'0 0.0
2015-Feb-25 07:33N 53°35' E 008°32'0 0.0
2015-Feb-25 06:31N 53°35' E 008°32'0 0.0
2015-Feb-25 05:28N 53°35' E 008°32'0 0.0
2015-Feb-25 04:32N 53°35' E 008°32'0 0.0
2015-Feb-25 03:33N 53°35' E 008°32'0 0.0
2015-Feb-25 02:33N 53°35' E 008°32'0 0.0
2015-Feb-25 01:31N 53°35' E 008°32'0 0.0
2015-Feb-25 00:29N 53°35' E 008°32'0 0.0
2015-Feb-24 23:31N 53°35' E 008°32'0 0.0
2015-Feb-24 22:32N 53°35' E 008°32'0 0.0
2015-Feb-24 21:33N 53°35' E 008°32'0 0.0
2015-Feb-24 20:34N 53°35' E 008°32'1 1.2
2015-Feb-24 19:33N 53°36' E 008°31'1313.2
2015-Feb-24 18:34N 53°44' E 008°14'1615.5
2015-Feb-24 17:33N 53°52' E 007°51'1010.2
2015-Feb-24 16:33N 53°54' E 007°34'1714.1
2015-Feb-24 15:23N 53°51' E 007°06'1414.1
2015-Feb-24 14:24N 53°49' E 006°43'1914.8
2015-Feb-24 13:08N 53°44' E 006°12'915.2
2015-Feb-24 12:34N 53°41' E 005°59'1413.9
2015-Feb-24 11:33N 53°37' E 005°36'1313.5
2015-Feb-24 10:33N 53°33' E 005°15'1414.0
2015-Feb-24 09:33N 53°26' E 004°53'1616.5
2015-Feb-24 08:33N 53°15' E 004°34'1716.8
2015-Feb-24 07:33N 52°60' E 004°22'1816.9
2015-Feb-24 06:31N 52°44' E 004°08'2 4.6
2015-Feb-24 06:00N 52°42' E 004°06'1530.7 250 / 36996.9 5.4 1.5 7.0 4.7 6.0
2015-Feb-24 05:31N 52°29' E 003°55'1616.2
2015-Feb-24 04:33N 52°14' E 003°53'1211.8
2015-Feb-24 03:34N 52°02' E 003°56'6 6.1
2015-Feb-24 02:33N 51°57' E 004°03'0 0.0
2015-Feb-24 01:33N 51°57' E 004°03'0 0.0
2015-Feb-24 00:31N 51°57' E 004°03'0 0.0
2015-Feb-23 23:31N 51°57' E 004°03'0 0.0
2015-Feb-23 22:32N 51°57' E 004°03'0 0.0
2015-Feb-23 21:32N 51°58' E 004°03'0 0.0
2015-Feb-23 20:32N 51°57' E 004°03'0 0.0
2015-Feb-23 19:33N 51°57' E 004°03'0 0.0
2015-Feb-23 18:33N 51°57' E 004°03'0 0.0
2015-Feb-23 17:31N 51°57' E 004°03'0 0.0
2015-Feb-23 16:32N 51°57' E 004°03'0 0.0
2015-Feb-23 15:32N 51°57' E 004°03'0 0.0
2015-Feb-23 14:33N 51°57' E 004°03'0 0.0
2015-Feb-23 13:31N 51°58' E 004°03'0 0.0
2015-Feb-23 12:31N 51°57' E 004°03'0 0.0
2015-Feb-23 11:32N 51°57' E 004°03'0 0.0
2015-Feb-23 10:33N 51°57' E 004°03'0 0.0
2015-Feb-23 09:33N 51°57' E 004°03'0 0.0
2015-Feb-23 08:31N 51°57' E 004°03'0 0.0
2015-Feb-23 07:31N 51°57' E 004°03'0 0.0
2015-Feb-23 06:32N 51°57' E 004°03'1 1.1
2015-Feb-23 05:33N 51°58' E 004°05'6 6.1
2015-Feb-23 04:33N 52°01' E 003°56'9 8.7
2015-Feb-23 03:34N 51°59' E 003°42'1010.4
2015-Feb-23 02:34N 51°56' E 003°26'10 9.5
2015-Feb-23 01:33N 51°52' E 003°12'9 8.8
2015-Feb-23 00:33N 51°48' E 002°60'0 0.1
2015-Feb-22 23:33N 51°48' E 002°60'7 6.6
2015-Feb-22 22:33N 51°49' E 003°10'6 5.5
2015-Feb-22 21:32N 51°49' E 003°19'6 6.0
2015-Feb-22 20:33N 51°44' E 003°13'5 5.0
2015-Feb-22 19:33N 51°40' E 003°12'1615.9
2015-Feb-22 18:33N 51°25' E 003°03'1918.8
2015-Feb-22 17:33N 51°26' E 003°33'1212.2
2015-Feb-22 16:34N 51°21' E 003°51'8 7.8
2015-Feb-22 15:33N 51°22' E 004°03'9 8.8
2015-Feb-22 14:34N 51°21' E 004°17'1 0.7
2015-Feb-22 13:33N 51°20' E 004°18'1 1.0
2015-Feb-22 12:33N 51°19' E 004°19'1 0.9
2015-Feb-22 11:28N 51°20' E 004°20'0 0.0
2015-Feb-22 10:29N 51°20' E 004°20'0 0.0
2015-Feb-22 09:32N 51°20' E 004°20'0 0.0
2015-Feb-22 08:33N 51°20' E 004°20'0 0.0
2015-Feb-22 07:33N 51°20' E 004°20'0 0.0
2015-Feb-22 06:31N 51°20' E 004°20'0 0.0
2015-Feb-22 05:31N 51°20' E 004°20'0 0.0
2015-Feb-22 04:32N 51°20' E 004°20'0 0.0
2015-Feb-22 03:32N 51°20' E 004°20'0 0.0
2015-Feb-22 02:30N 51°20' E 004°20'0 0.0
2015-Feb-22 01:33N 51°20' E 004°20'0 0.0
2015-Feb-22 00:33N 51°20' E 004°20'0 0.0
2015-Feb-21 23:31N 51°20' E 004°20'0 0.0
2015-Feb-21 22:28N 51°20' E 004°20'0 0.0
2015-Feb-21 21:32N 51°20' E 004°20'0 0.0
2015-Feb-21 20:32N 51°20' E 004°20'0 0.0
2015-Feb-21 19:30N 51°20' E 004°20'0 0.0
2015-Feb-21 18:33N 51°20' E 004°20'0 0.0
2015-Feb-21 17:31N 51°20' E 004°20'0 0.0
2015-Feb-21 16:31N 51°20' E 004°20'0 0.0
2015-Feb-21 15:32N 51°20' E 004°20'0 0.0
2015-Feb-21 14:32N 51°20' E 004°20'0 0.0
2015-Feb-21 13:33N 51°20' E 004°20'0 0.0
2015-Feb-21 12:33N 51°20' E 004°20'0 0.0
2015-Feb-21 11:33N 51°20' E 004°20'1 1.1
2015-Feb-21 10:33N 51°20' E 004°19'2 1.6
2015-Feb-21 09:34N 51°21' E 004°17'5 5.3
2015-Feb-21 08:33N 51°23' E 004°09'8 8.5
2015-Feb-21 07:33N 51°22' E 003°56'1010.0
2015-Feb-21 06:33N 51°26' E 003°41'1110.9
2015-Feb-21 05:33N 51°24' E 003°23'1817.9
2015-Feb-21 04:33N 51°22' E 002°55'1212.1
2015-Feb-21 03:33N 51°22' E 002°36'1615.9
2015-Feb-21 02:33N 51°17' E 002°12'2120.6
2015-Feb-21 01:34N 51°05' E 001°45'2420.7
2015-Feb-21 00:24N 50°45' E 001°24'33420.3
2015-Feb-20 08:00N 48°42' W 006°36'66220.7 350 / 221012.910.8 2.0 9.5 7.410.5
2015-Feb-19 00:00N 42°12' W 019°18'36620.3 240 / 141038.6 5.4 1.013.812.313.4
2015-Feb-18 06:00N 39°36' W 026°36'3323.3 200 / 181038.410.8 1.016.014.315.5
2015-Feb-18 04:33N 39°31' W 027°19'2121.2
2015-Feb-18 03:33N 39°25' W 027°45'2121.2
2015-Feb-18 02:33N 39°20' W 028°12'2121.3
2015-Feb-18 01:33N 39°14' W 028°38'2121.4
2015-Feb-18 00:33N 39°09' W 029°05'1323.5
2015-Feb-18 00:00N 39°00' W 029°18'   210 / 221038.310.8 1.517.514.916.2

Dump ship's entire track history